Cancun, ROO, Mexico
Current Conditions -  °F | °C
As of 8:48 AM on Thursday 30 Oct 2014 (Local Time) from MMUN Reporting Station
Scattered Clouds Scattered Clouds  
Wind Chill: 84°   Ceiling: Unl
Heat Index: 91°   Visibility: 7mi
Dew Point: 73°   Wind: 6mph
Humidity: 70%   Direction: 30°NNE
Pressure: 29.98"   Gusts: NA
Location:  21.17°N, 86.83°W
Report Text: MMUN 301448Z 03005KT 7SM SCT018 29/23 A2998 RMK SLP144 52010 967 8/500 AC
Loading
Personal Weather Stations






























Interactive Weather Map
Tropical Storm Tracking
New forecast layout! Learn more

10-Day Weather Forecast

Advertisements
Track Severe Weather on mobile